createdAt,value
2017-08-12T00:00:32.938Z,1001.28
2017-08-12T00:01:32.927Z,1001.28
2017-08-12T00:02:32.920Z,1001.31
2017-08-12T00:03:32.911Z,1001.31
2017-08-12T00:04:33.221Z,1001.27
2017-08-12T00:05:32.889Z,1001.26
2017-08-12T00:06:32.882Z,1001.28
2017-08-12T00:07:32.873Z,1001.26
2017-08-12T00:08:32.872Z,1001.32
2017-08-12T00:09:32.851Z,1001.26
2017-08-12T00:10:33.096Z,1001.24
2017-08-12T00:11:32.833Z,1001.26
2017-08-12T00:12:32.820Z,1001.26
2017-08-12T00:13:32.807Z,1001.24
2017-08-12T00:14:32.797Z,1001.23
2017-08-12T00:15:32.792Z,1001.20
2017-08-12T00:16:33.105Z,1001.21
2017-08-12T00:17:32.769Z,1001.20
2017-08-12T00:18:32.757Z,1001.16
2017-08-12T00:19:32.753Z,1001.20
2017-08-12T00:20:32.738Z,1001.21
2017-08-12T00:21:32.730Z,1001.19
2017-08-12T00:22:33.036Z,1001.19
2017-08-12T00:23:32.706Z,1001.18
2017-08-12T00:24:32.700Z,1001.22
2017-08-12T00:25:32.691Z,1001.23
2017-08-12T00:26:32.676Z,1001.25
2017-08-12T00:27:32.667Z,1001.23
2017-08-12T00:28:32.880Z,1001.20
2017-08-12T00:29:32.648Z,1001.23
2017-08-12T00:30:32.639Z,1001.20
2017-08-12T00:31:32.635Z,1001.18
2017-08-12T00:32:32.620Z,1001.21
2017-08-12T00:33:32.611Z,1001.25
2017-08-12T00:34:32.637Z,1001.22
2017-08-12T00:35:32.598Z,1001.21
2017-08-12T00:36:32.582Z,1001.23
2017-08-12T00:37:32.577Z,1001.19
2017-08-12T00:38:32.798Z,1001.20
2017-08-12T00:39:32.551Z,1001.17
2017-08-12T00:40:32.543Z,1001.15
2017-08-12T00:41:32.537Z,1001.12
2017-08-12T00:42:32.520Z,1001.10
2017-08-12T00:43:32.516Z,1001.08
2017-08-12T00:44:32.943Z,1001.10
2017-08-12T00:45:32.494Z,1001.12
2017-08-12T00:46:32.476Z,1001.10
2017-08-12T00:47:32.470Z,1001.06
2017-08-12T00:48:32.462Z,1001.09
2017-08-12T00:49:32.457Z,1001.09
2017-08-12T00:50:32.468Z,1001.11
2017-08-12T00:51:32.435Z,1001.09
2017-08-12T00:52:32.429Z,1001.12
2017-08-12T00:53:32.417Z,1001.08
2017-08-12T00:54:32.402Z,1001.11
2017-08-12T00:55:32.724Z,1001.11
2017-08-12T00:56:32.391Z,1001.10
2017-08-12T00:57:32.377Z,1001.07
2017-08-12T00:58:32.377Z,1001.07
2017-08-12T00:59:32.355Z,1001.09
2017-08-12T01:00:32.345Z,1001.06
2017-08-12T01:01:32.552Z,1001.09
2017-08-12T01:02:32.321Z,1001.04
2017-08-12T01:03:32.312Z,1001.03
2017-08-12T01:04:32.309Z,1001.03
2017-08-12T01:05:32.294Z,1001.02
2017-08-12T01:06:32.280Z,1001.07
2017-08-12T01:07:32.614Z,1001.03
2017-08-12T01:08:32.266Z,1001.05
2017-08-12T01:09:32.256Z,1001.01
2017-08-12T01:10:32.242Z,1001.02
2017-08-12T01:11:32.235Z,1001.00
2017-08-12T01:12:32.226Z,1001.02
2017-08-12T01:13:32.629Z,1001.03
2017-08-12T01:14:32.219Z,1001.00
2017-08-12T01:15:32.192Z,1001.00
2017-08-12T01:16:32.183Z,1001.01
2017-08-12T01:17:32.172Z,1000.97
2017-08-12T01:18:32.169Z,1001.00
2017-08-12T01:19:32.466Z,1000.98
2017-08-12T01:20:32.147Z,1000.98
2017-08-12T01:21:32.137Z,1000.99
2017-08-12T01:22:32.125Z,1000.99
2017-08-12T01:23:32.116Z,1001.03
2017-08-12T01:24:32.115Z,1000.99
2017-08-12T01:25:32.451Z,1000.98
2017-08-12T01:26:32.092Z,1000.96
2017-08-12T01:27:32.073Z,1001.02
2017-08-12T01:28:32.074Z,1000.98
2017-08-12T01:29:32.058Z,1000.95
2017-08-12T01:30:32.046Z,1000.94
2017-08-12T01:31:32.394Z,1000.89
2017-08-12T01:32:32.042Z,1000.86
2017-08-12T01:33:32.023Z,1000.83
2017-08-12T01:34:32.017Z,1000.84
2017-08-12T01:35:32.003Z,1000.82
2017-08-12T01:36:31.989Z,1000.82
2017-08-12T01:37:32.003Z,1000.78
2017-08-12T01:38:31.966Z,1000.77
2017-08-12T01:39:31.957Z,1000.80
2017-08-12T01:40:31.956Z,1000.77
2017-08-12T01:41:31.963Z,1000.79
2017-08-12T01:42:31.931Z,1000.78
2017-08-12T01:43:31.921Z,1000.78
2017-08-12T01:44:31.926Z,1000.80
2017-08-12T01:45:31.898Z,1000.78
2017-08-12T01:46:32.316Z,1000.80
2017-08-12T01:47:31.876Z,1000.77
2017-08-12T01:48:31.871Z,1000.79
2017-08-12T01:49:31.863Z,1000.81
2017-08-12T01:50:31.847Z,1000.83
2017-08-12T01:51:31.838Z,1000.86
2017-08-12T01:52:31.861Z,1000.86
2017-08-12T01:53:31.820Z,1000.85
2017-08-12T01:54:31.810Z,1000.87
2017-08-12T01:55:31.802Z,1000.84
2017-08-12T01:56:32.182Z,1000.80
2017-08-12T01:57:31.783Z,1000.81
2017-08-12T01:58:31.774Z,1000.83
2017-08-12T01:59:31.767Z,1000.78
2017-08-12T02:00:31.752Z,1000.77
2017-08-12T02:01:31.740Z,1000.75
2017-08-12T02:02:32.033Z,1000.74
2017-08-12T02:03:31.720Z,1000.70
2017-08-12T02:04:31.722Z,1000.73
2017-08-12T02:05:31.708Z,1000.71
2017-08-12T02:06:31.686Z,1000.68
2017-08-12T02:07:31.679Z,1000.62
2017-08-12T02:08:31.991Z,1000.62
2017-08-12T02:09:31.672Z,1000.62
2017-08-12T02:10:31.654Z,1000.58
2017-08-12T02:11:31.641Z,1000.59
2017-08-12T02:12:31.627Z,1000.58
2017-08-12T02:13:31.625Z,1000.56
2017-08-12T02:14:31.648Z,1000.51
2017-08-12T02:15:31.604Z,1000.50
2017-08-12T02:16:31.592Z,1000.50
2017-08-12T02:17:31.582Z,1000.52
2017-08-12T02:18:31.574Z,1000.50
2017-08-12T02:19:31.788Z,1000.47
2017-08-12T02:20:31.554Z,1000.47
2017-08-12T02:21:31.551Z,1000.45
2017-08-12T02:22:31.531Z,1000.49
2017-08-12T02:23:31.526Z,1000.47
2017-08-12T02:24:31.514Z,1000.45
2017-08-12T02:25:31.734Z,1000.48
2017-08-12T02:26:31.492Z,1000.44
2017-08-12T02:27:31.491Z,1000.42
2017-08-12T02:28:31.477Z,1000.45
2017-08-12T02:29:31.466Z,1000.45
2017-08-12T02:30:31.457Z,1000.47
2017-08-12T02:31:31.889Z,1000.46
2017-08-12T02:32:31.452Z,1000.45
2017-08-12T02:33:31.427Z,1000.47
2017-08-12T02:34:31.422Z,1000.44
2017-08-12T02:35:31.409Z,1000.41
2017-08-12T02:36:31.397Z,1000.42
2017-08-12T02:37:31.605Z,1000.43
2017-08-12T02:38:31.384Z,1000.42
2017-08-12T02:39:31.379Z,1000.44
2017-08-12T02:40:31.360Z,1000.44
2017-08-12T02:41:31.363Z,1000.45
2017-08-12T02:42:31.340Z,1000.47
2017-08-12T02:43:31.636Z,1000.47
2017-08-12T02:44:31.320Z,1000.50
2017-08-12T02:45:31.311Z,1000.49
2017-08-12T02:46:31.300Z,1000.44
2017-08-12T02:47:31.291Z,1000.46
2017-08-12T02:48:31.290Z,1000.44
2017-08-12T02:49:31.300Z,1000.46
2017-08-12T02:50:31.268Z,1000.50
2017-08-12T02:51:31.252Z,1000.43
2017-08-12T02:52:31.243Z,1000.47
2017-08-12T02:53:31.248Z,1000.46
2017-08-12T02:54:31.532Z,1000.43
2017-08-12T02:55:31.222Z,1000.44
2017-08-12T02:56:31.207Z,1000.45
2017-08-12T02:57:31.193Z,1000.43
2017-08-12T02:58:31.185Z,1000.48
2017-08-12T02:59:31.173Z,1000.43
2017-08-12T03:00:31.480Z,1000.41
2017-08-12T03:01:31.157Z,1000.39
2017-08-12T03:02:31.147Z,1000.40
2017-08-12T03:03:31.138Z,1000.43
2017-08-12T03:04:31.127Z,1000.36
2017-08-12T03:05:31.117Z,1000.35
2017-08-12T03:06:31.409Z,1000.34
2017-08-12T03:07:31.109Z,1000.35
2017-08-12T03:08:31.086Z,1000.31
2017-08-12T03:09:31.082Z,1000.29
2017-08-12T03:10:31.069Z,1000.28
2017-08-12T03:11:31.055Z,1000.26
2017-08-12T03:12:31.406Z,1000.25
2017-08-12T03:13:31.039Z,1000.26
2017-08-12T03:14:31.024Z,1000.28
2017-08-12T03:15:31.019Z,1000.21
2017-08-12T03:16:31.026Z,1000.22
2017-08-12T03:17:31.002Z,1000.22
2017-08-12T03:18:31.294Z,1000.20
2017-08-12T03:19:30.986Z,1000.16
2017-08-12T03:20:30.971Z,1000.17
2017-08-12T03:21:30.971Z,1000.15
2017-08-12T03:22:30.948Z,1000.15
2017-08-12T03:23:30.946Z,1000.16
2017-08-12T03:24:31.373Z,1000.15
2017-08-12T03:25:30.939Z,1000.15
2017-08-12T03:26:30.915Z,1000.14
2017-08-12T03:27:30.928Z,1000.10
2017-08-12T03:28:30.896Z,1000.12
2017-08-12T03:29:30.887Z,1000.17
2017-08-12T03:30:31.234Z,1000.18
2017-08-12T03:31:30.873Z,1000.13
2017-08-12T03:32:30.855Z,1000.18
2017-08-12T03:33:30.849Z,1000.16
2017-08-12T03:34:30.845Z,1000.18
2017-08-12T03:35:30.886Z,1000.20
2017-08-12T03:36:30.847Z,1000.18
2017-08-12T03:37:30.808Z,1000.18
2017-08-12T03:38:30.797Z,1000.20
2017-08-12T03:39:30.789Z,1000.20
2017-08-12T03:40:30.775Z,1000.22
2017-08-12T03:41:31.124Z,1000.20
2017-08-12T03:42:30.759Z,1000.22
2017-08-12T03:43:30.752Z,1000.26
2017-08-12T03:44:30.737Z,1000.24
2017-08-12T03:45:30.731Z,1000.22
2017-08-12T03:46:30.718Z,1000.25
2017-08-12T03:47:30.740Z,1000.23
2017-08-12T03:48:30.714Z,1000.22
2017-08-12T03:49:30.693Z,1000.22
2017-08-12T03:50:30.688Z,1000.19
2017-08-12T03:51:30.705Z,1000.23
2017-08-12T03:52:30.675Z,1000.20
2017-08-12T03:53:30.652Z,1000.21
2017-08-12T03:54:30.644Z,1000.22
2017-08-12T03:55:30.661Z,1000.23
2017-08-12T03:56:30.993Z,1000.21
2017-08-12T03:57:30.616Z,1000.20
2017-08-12T03:58:30.606Z,1000.18
2017-08-12T03:59:30.602Z,1000.20
2017-08-12T04:00:30.589Z,1000.19
2017-08-12T04:01:30.579Z,1000.18
2017-08-12T04:02:30.874Z,1000.23
2017-08-12T04:03:30.559Z,1000.24
2017-08-12T04:04:30.553Z,1000.26
2017-08-12T04:05:30.540Z,1000.28
2017-08-12T04:06:30.533Z,1000.29
2017-08-12T04:07:30.523Z,1000.27
2017-08-12T04:08:30.820Z,1000.31
2017-08-12T04:09:30.502Z,1000.31
2017-08-12T04:10:30.490Z,1000.33
2017-08-12T04:11:30.481Z,1000.33
2017-08-12T04:12:30.473Z,1000.28
2017-08-12T04:13:30.461Z,1000.26
2017-08-12T04:14:30.826Z,1000.26
2017-08-12T04:15:30.450Z,1000.25
2017-08-12T04:16:30.444Z,1000.22
2017-08-12T04:17:30.430Z,1000.18
2017-08-12T04:18:30.416Z,1000.13
2017-08-12T04:19:30.416Z,1000.14
2017-08-12T04:20:30.431Z,1000.12
2017-08-12T04:21:30.800Z,1000.12
2017-08-12T04:22:30.379Z,1000.09
2017-08-12T04:23:30.367Z,1000.14
2017-08-12T04:24:30.359Z,1000.13
2017-08-12T04:25:30.362Z,1000.16
2017-08-12T04:26:30.337Z,1000.15
2017-08-12T04:27:30.693Z,1000.18
2017-08-12T04:28:30.322Z,1000.17
2017-08-12T04:29:30.317Z,1000.12
2017-08-12T04:30:30.298Z,1000.15
2017-08-12T04:31:30.289Z,1000.14
2017-08-12T04:32:30.277Z,1000.16
2017-08-12T04:33:30.302Z,1000.14
2017-08-12T04:34:30.268Z,1000.15
2017-08-12T04:35:30.254Z,1000.16
2017-08-12T04:36:30.241Z,1000.20
2017-08-12T04:37:30.599Z,1000.20
2017-08-12T04:38:30.219Z,1000.19
2017-08-12T04:39:30.219Z,1000.19
2017-08-12T04:40:30.212Z,1000.18
2017-08-12T04:41:30.205Z,1000.18
2017-08-12T04:42:30.183Z,1000.20
2017-08-12T04:43:30.506Z,1000.21
2017-08-12T04:44:30.161Z,1000.22
2017-08-12T04:45:30.167Z,1000.18
2017-08-12T04:46:30.146Z,1000.21
2017-08-12T04:47:30.139Z,1000.18
2017-08-12T04:48:30.122Z,1000.15
2017-08-12T04:49:30.437Z,1000.19
2017-08-12T04:50:30.106Z,1000.17
2017-08-12T04:51:30.096Z,1000.17
2017-08-12T04:52:30.089Z,1000.15
2017-08-12T04:53:30.078Z,1000.10
2017-08-12T04:54:30.086Z,1000.17
2017-08-12T04:55:30.521Z,1000.15
2017-08-12T04:56:30.049Z,1000.17
2017-08-12T04:57:30.038Z,1000.18
2017-08-12T04:58:30.042Z,1000.19
2017-08-12T04:59:30.024Z,1000.15
2017-08-12T05:00:30.009Z,1000.15
2017-08-12T05:01:30.030Z,1000.15
2017-08-12T05:02:29.987Z,1000.15
2017-08-12T05:03:29.981Z,1000.14
2017-08-12T05:04:29.978Z,1000.11
2017-08-12T05:05:29.962Z,1000.10
2017-08-12T05:06:30.248Z,1000.11
2017-08-12T05:07:29.943Z,1000.12
2017-08-12T05:08:29.932Z,1000.09
2017-08-12T05:09:29.929Z,1000.11
2017-08-12T05:10:29.914Z,1000.10
2017-08-12T05:11:29.906Z,1000.10
2017-08-12T05:12:30.119Z,1000.11
2017-08-12T05:13:29.885Z,1000.14
2017-08-12T05:14:29.875Z,1000.10
2017-08-12T05:15:29.875Z,1000.10
2017-08-12T05:16:29.856Z,1000.08
2017-08-12T05:17:29.846Z,1000.10
2017-08-12T05:18:30.144Z,1000.10
2017-08-12T05:19:29.824Z,1000.10
2017-08-12T05:20:29.820Z,1000.08
2017-08-12T05:21:29.813Z,1000.13
2017-08-12T05:22:29.811Z,1000.12
2017-08-12T05:23:29.786Z,1000.12
2017-08-12T05:24:30.001Z,1000.19
2017-08-12T05:25:29.774Z,1000.15
2017-08-12T05:26:29.759Z,1000.17
2017-08-12T05:27:29.749Z,1000.19
2017-08-12T05:28:29.767Z,1000.15
2017-08-12T05:29:29.730Z,1000.17
2017-08-12T05:30:30.036Z,1000.18
2017-08-12T05:31:29.706Z,1000.21
2017-08-12T05:32:29.702Z,1000.17
2017-08-12T05:33:29.692Z,1000.21
2017-08-12T05:34:29.691Z,1000.20
2017-08-12T05:35:29.673Z,1000.23
2017-08-12T05:36:29.996Z,1000.18
2017-08-12T05:37:29.651Z,1000.19
2017-08-12T05:38:29.643Z,1000.20
2017-08-12T05:39:29.632Z,1000.23
2017-08-12T05:40:29.635Z,1000.21
2017-08-12T05:41:29.613Z,1000.20
2017-08-12T05:42:29.963Z,1000.20
2017-08-12T05:43:29.594Z,1000.18
2017-08-12T05:44:29.585Z,1000.14
2017-08-12T05:45:29.575Z,1000.13
2017-08-12T05:46:29.564Z,1000.14
2017-08-12T05:47:29.552Z,1000.12
2017-08-12T05:48:29.754Z,1000.13
2017-08-12T05:49:29.536Z,1000.14
2017-08-12T05:50:29.522Z,1000.11
2017-08-12T05:51:29.515Z,1000.17
2017-08-12T05:52:29.510Z,1000.17
2017-08-12T05:53:29.503Z,1000.18
2017-08-12T05:54:29.517Z,1000.18
2017-08-12T05:55:29.489Z,1000.15
2017-08-12T05:56:29.473Z,1000.23
2017-08-12T05:57:29.464Z,1000.18
2017-08-12T05:58:29.760Z,1000.19
2017-08-12T05:59:29.449Z,1000.19
2017-08-12T06:00:29.427Z,1000.14
2017-08-12T06:01:29.420Z,1000.16
2017-08-12T06:02:29.411Z,1000.15
2017-08-12T06:03:29.402Z,1000.16
2017-08-12T06:04:29.437Z,1000.18
2017-08-12T06:05:29.386Z,1000.16
2017-08-12T06:06:29.370Z,1000.17
2017-08-12T06:07:29.364Z,1000.19
2017-08-12T06:08:29.654Z,1000.21
2017-08-12T06:09:29.347Z,1000.23
2017-08-12T06:10:29.335Z,1000.18
2017-08-12T06:11:29.327Z,1000.17
2017-08-12T06:12:29.317Z,1000.20
2017-08-12T06:13:29.307Z,1000.20
2017-08-12T06:14:29.733Z,1000.17
2017-08-12T06:15:29.288Z,1000.18
2017-08-12T06:16:29.276Z,1000.18
2017-08-12T06:17:29.271Z,1000.22
2017-08-12T06:18:29.252Z,1000.21
2017-08-12T06:19:29.261Z,1000.22
2017-08-12T06:20:29.682Z,1000.26
2017-08-12T06:21:29.234Z,1000.23
2017-08-12T06:22:29.216Z,1000.23
2017-08-12T06:23:29.209Z,1000.22
2017-08-12T06:24:29.197Z,1000.25
2017-08-12T06:25:29.188Z,1000.24
2017-08-12T06:26:29.615Z,1000.27
2017-08-12T06:27:29.168Z,1000.29
2017-08-12T06:28:29.158Z,1000.24
2017-08-12T06:29:29.158Z,1000.19
2017-08-12T06:30:29.139Z,1000.25
2017-08-12T06:31:29.126Z,1000.22
2017-08-12T06:32:29.560Z,1000.24
2017-08-12T06:33:29.107Z,1000.23
2017-08-12T06:34:29.103Z,1000.22
2017-08-12T06:35:29.094Z,1000.25
2017-08-12T06:36:29.085Z,1000.28
2017-08-12T06:37:29.073Z,1000.24
2017-08-12T06:38:29.289Z,1000.24
2017-08-12T06:39:29.058Z,1000.24
2017-08-12T06:40:29.041Z,1000.22
2017-08-12T06:41:29.029Z,1000.22
2017-08-12T06:42:29.025Z,1000.27
2017-08-12T06:43:29.011Z,1000.28
2017-08-12T06:44:29.035Z,1000.23
2017-08-12T06:45:28.994Z,1000.25
2017-08-12T06:46:28.984Z,1000.25
2017-08-12T06:47:28.976Z,1000.26
2017-08-12T06:48:29.292Z,1000.28
2017-08-12T06:49:28.954Z,1000.27
2017-08-12T06:50:28.951Z,1000.23
2017-08-12T06:51:28.938Z,1000.28
2017-08-12T06:52:28.927Z,1000.25
2017-08-12T06:53:28.916Z,1000.26
2017-08-12T06:54:29.211Z,1000.29
2017-08-12T06:55:28.903Z,1000.27
2017-08-12T06:56:28.885Z,1000.28
2017-08-12T06:57:28.877Z,1000.26
2017-08-12T06:58:28.867Z,1000.27
2017-08-12T06:59:28.859Z,1000.23
2017-08-12T07:00:29.156Z,1000.23
2017-08-12T07:01:28.840Z,1000.22
2017-08-12T07:02:28.832Z,1000.23
2017-08-12T07:03:28.818Z,1000.22
2017-08-12T07:04:28.812Z,1000.22
2017-08-12T07:05:28.803Z,1000.13
2017-08-12T07:06:29.146Z,1000.18
2017-08-12T07:07:28.784Z,1000.20
2017-08-12T07:08:28.776Z,1000.18
2017-08-12T07:09:28.764Z,1000.15
2017-08-12T07:10:28.751Z,1000.18
2017-08-12T07:11:28.752Z,1000.14
2017-08-12T07:12:28.758Z,1000.16
2017-08-12T07:13:28.722Z,1000.20
2017-08-12T07:14:28.711Z,1000.24
2017-08-12T07:15:29.020Z,1000.25
2017-08-12T07:16:28.691Z,1000.23
2017-08-12T07:17:28.688Z,1000.25
2017-08-12T07:18:28.670Z,1000.23
2017-08-12T07:19:28.665Z,1000.26
2017-08-12T07:20:28.666Z,1000.32
2017-08-12T07:21:28.950Z,1000.26
2017-08-12T07:22:28.633Z,1000.29
2017-08-12T07:23:28.629Z,1000.34
2017-08-12T07:24:28.625Z,1000.32
2017-08-12T07:25:28.611Z,1000.28
2017-08-12T07:26:28.594Z,1000.28
2017-08-12T07:27:28.626Z,1000.32
2017-08-12T07:28:28.587Z,1000.27
2017-08-12T07:29:28.571Z,1000.30
2017-08-12T07:30:28.564Z,1000.27
2017-08-12T07:31:28.547Z,1000.26
2017-08-12T07:32:28.570Z,1000.27
2017-08-12T07:33:28.535Z,1000.26
2017-08-12T07:34:28.528Z,1000.26
2017-08-12T07:35:28.512Z,1000.26
2017-08-12T07:36:28.504Z,1000.28
2017-08-12T07:37:28.529Z,1000.26
2017-08-12T07:38:28.489Z,1000.24
2017-08-12T07:39:28.471Z,1000.22
2017-08-12T07:40:28.460Z,1000.24
2017-08-12T07:41:28.454Z,1000.25
2017-08-12T07:42:28.754Z,1000.17
2017-08-12T07:43:28.430Z,1000.24
2017-08-12T07:44:28.430Z,1000.24
2017-08-12T07:45:28.414Z,1000.24
2017-08-12T07:46:28.402Z,1000.26
2017-08-12T07:47:28.394Z,1000.23
2017-08-12T07:48:28.714Z,1000.24
2017-08-12T07:49:28.374Z,1000.23
2017-08-12T07:50:28.364Z,1000.27
2017-08-12T07:51:28.357Z,1000.27
2017-08-12T07:52:28.356Z,1000.27
2017-08-12T07:53:28.333Z,1000.28
2017-08-12T07:54:28.777Z,1000.27
2017-08-12T07:55:28.318Z,1000.26
2017-08-12T07:56:28.306Z,1000.27
2017-08-12T07:57:28.300Z,1000.24
2017-08-12T07:58:28.292Z,1000.20
2017-08-12T07:59:28.278Z,1000.26
2017-08-12T08:00:28.643Z,1000.27
2017-08-12T08:01:28.265Z,1000.20
2017-08-12T08:02:28.255Z,1000.23
2017-08-12T08:03:28.237Z,1000.22
2017-08-12T08:04:28.239Z,1000.25
2017-08-12T08:05:28.221Z,1000.23
2017-08-12T08:06:28.244Z,1000.26
2017-08-12T08:07:28.196Z,1000.26
2017-08-12T08:08:28.237Z,1000.27
2017-08-12T08:09:28.178Z,1000.28
2017-08-12T08:10:28.208Z,1000.25
2017-08-12T08:11:28.162Z,1000.28
2017-08-12T08:12:28.150Z,1000.29
2017-08-12T08:13:28.519Z,1000.27
2017-08-12T08:14:28.133Z,1000.30
2017-08-12T08:15:28.121Z,1000.32
2017-08-12T08:16:28.115Z,1000.34
2017-08-12T08:17:28.099Z,1000.36
2017-08-12T08:18:28.237Z,1000.35
2017-08-12T08:19:28.532Z,1000.35
2017-08-12T08:20:28.666Z,1000.38
2017-08-12T08:21:28.060Z,1000.35
2017-08-12T08:22:28.055Z,1000.44
2017-08-12T08:23:28.040Z,1000.43
2017-08-12T08:24:28.035Z,1000.41
2017-08-12T08:25:28.061Z,1000.41
2017-08-12T08:26:28.017Z,1000.43
2017-08-12T08:27:28.007Z,1000.45
2017-08-12T08:28:28.439Z,1000.44
2017-08-12T08:29:27.999Z,1000.51
2017-08-12T08:30:27.975Z,1000.46
2017-08-12T08:31:28.307Z,1000.51
2017-08-12T08:32:27.998Z,1000.51
2017-08-12T08:33:28.448Z,1000.52
2017-08-12T08:34:28.274Z,1000.49
2017-08-12T08:35:28.028Z,1000.46
2017-08-12T08:36:27.918Z,1000.50
2017-08-12T08:37:27.907Z,1000.47
2017-08-12T08:38:27.909Z,1000.51
2017-08-12T08:39:27.894Z,1000.55
2017-08-12T08:40:27.980Z,1000.53
2017-08-12T08:41:27.886Z,1000.50
2017-08-12T08:42:27.855Z,1000.47
2017-08-12T08:43:28.295Z,1000.50
2017-08-12T08:44:27.850Z,1000.51
2017-08-12T08:45:28.484Z,1000.52
2017-08-12T08:46:28.594Z,1000.48
2017-08-12T08:47:27.828Z,1000.49
2017-08-12T08:48:27.805Z,1000.50
2017-08-12T08:49:27.872Z,1000.44
2017-08-12T08:50:27.775Z,1000.49
2017-08-12T08:51:27.775Z,1000.50
2017-08-12T08:52:27.760Z,1000.45
2017-08-12T08:53:27.757Z,1000.47
2017-08-12T08:54:28.188Z,1000.47
2017-08-12T08:55:27.729Z,1000.49
2017-08-12T08:56:27.727Z,1000.50
2017-08-12T08:57:27.714Z,1000.51
2017-08-12T08:58:27.714Z,1000.49
2017-08-12T08:59:27.700Z,1000.51
2017-08-12T09:00:27.716Z,1000.48
2017-08-12T09:01:27.679Z,1000.51
2017-08-12T09:02:27.658Z,1000.53
2017-08-12T09:03:27.657Z,1000.52
2017-08-12T09:04:27.645Z,1000.50
2017-08-12T09:05:28.040Z,1000.51
2017-08-12T09:06:27.629Z,1000.51
2017-08-12T09:07:27.618Z,1000.50
2017-08-12T09:08:27.605Z,1000.50
2017-08-12T09:09:27.594Z,1000.49
2017-08-12T09:10:27.585Z,1000.50
2017-08-12T09:11:27.884Z,1000.47
2017-08-12T09:12:27.568Z,1000.44
2017-08-12T09:13:27.568Z,1000.45
2017-08-12T09:14:27.557Z,1000.45
2017-08-12T09:15:27.552Z,1000.44
2017-08-12T09:16:27.539Z,1000.47
2017-08-12T09:47:40.538Z,1000.49
2017-08-12T09:48:39.737Z,1000.48
2017-08-12T09:49:52.676Z,1000.48
2017-08-12T09:55:57.967Z,1000.47
2017-08-12T09:56:51.750Z,1000.51
2017-08-12T09:57:52.018Z,1000.45
2017-08-12T10:14:32.411Z,1000.42
2017-08-12T10:15:31.937Z,1000.39
2017-08-12T10:16:33.344Z,1000.41
2017-08-12T10:17:32.032Z,1000.42
2017-08-12T10:18:31.880Z,1000.41
2017-08-12T10:19:31.561Z,1000.44
2017-08-12T10:20:31.546Z,1000.40
2017-08-12T10:21:31.541Z,1000.41
2017-08-12T10:22:31.527Z,1000.41
2017-08-12T10:23:31.956Z,1000.43
2017-08-12T10:24:31.519Z,1000.48
2017-08-12T10:25:31.496Z,1000.42
2017-08-12T10:26:31.492Z,1000.48
2017-08-12T10:27:31.481Z,1000.46
2017-08-12T10:28:31.467Z,1000.43
2017-08-12T10:29:31.907Z,1000.44
2017-08-12T10:30:31.449Z,1000.39
2017-08-12T10:31:31.439Z,1000.38
2017-08-12T10:32:31.429Z,1000.42
2017-08-12T10:33:31.425Z,1000.43
2017-08-12T10:34:31.412Z,1000.41
2017-08-12T10:35:31.693Z,1000.46
2017-08-12T10:36:31.393Z,1000.42
2017-08-12T10:37:31.380Z,1000.40
2017-08-12T10:38:31.377Z,1000.43
2017-08-12T10:39:31.364Z,1000.43
2017-08-12T10:40:31.354Z,1000.49
2017-08-12T10:41:31.547Z,1000.49
2017-08-12T10:42:31.346Z,1000.48
2017-08-12T10:43:31.325Z,1000.44
2017-08-12T10:44:31.328Z,1000.45
2017-08-12T10:45:31.304Z,1000.47
2017-08-12T10:46:31.306Z,1000.46
2017-08-12T10:47:31.316Z,1000.49
2017-08-12T10:48:31.283Z,1000.49
2017-08-12T10:49:31.267Z,1000.48
2017-08-12T10:50:31.275Z,1000.51
2017-08-12T10:51:31.267Z,1000.51
2017-08-12T10:52:31.559Z,1000.50
2017-08-12T10:53:31.241Z,1000.49
2017-08-12T10:54:31.237Z,1000.47
2017-08-12T10:55:31.262Z,1000.52
2017-08-12T11:15:14.752Z,1000.49
2017-08-12T11:16:14.285Z,1000.50
2017-08-12T11:17:14.260Z,1000.47
2017-08-12T11:18:14.259Z,1000.53
2017-08-12T11:19:14.242Z,1000.46
2017-08-12T11:20:14.228Z,1000.50
2017-08-12T11:21:14.686Z,1000.49
2017-08-12T11:22:14.234Z,1000.45
2017-08-12T11:23:14.204Z,1000.51
2017-08-12T11:24:14.198Z,1000.46
2017-08-12T11:25:14.183Z,1000.49
2017-08-12T11:26:14.172Z,1000.45
2017-08-12T11:27:14.537Z,1000.47
2017-08-12T11:28:14.152Z,1000.46
2017-08-12T11:29:14.144Z,1000.47
2017-08-12T11:30:14.131Z,1000.45
2017-08-12T11:31:14.866Z,1000.45
2017-08-12T11:32:14.125Z,1000.42
2017-08-12T11:33:14.550Z,1000.42
2017-08-12T11:34:14.122Z,1000.46
2017-08-12T11:35:14.087Z,1000.41
2017-08-12T11:36:14.083Z,1000.48
2017-08-12T11:37:14.069Z,1000.49
2017-08-12T11:38:14.060Z,1000.46
2017-08-12T11:39:14.434Z,1000.53
2017-08-12T11:40:14.048Z,1000.54
2017-08-12T11:41:14.038Z,1000.51
2017-08-12T11:42:14.029Z,1000.50
2017-08-12T11:43:14.009Z,1000.48
2017-08-12T11:44:14.006Z,1000.47
2017-08-12T11:45:14.355Z,1000.47
2017-08-12T11:46:13.990Z,1000.51
2017-08-12T11:47:13.991Z,1000.51
2017-08-12T11:48:13.967Z,1000.49
2017-08-12T11:49:13.976Z,1000.49
2017-08-12T11:50:13.951Z,1000.49
2017-08-12T11:51:17.881Z,1000.48
2017-08-12T11:52:29.082Z,1000.53
2017-08-12T11:53:24.872Z,1000.53
2017-08-12T11:54:13.930Z,1000.51
2017-08-12T11:55:13.974Z,1000.55
2017-08-12T11:56:13.905Z,1000.52
2017-08-12T11:57:14.399Z,1000.52
2017-08-12T12:00:21.900Z,1000.55
2017-08-12T12:01:21.477Z,1000.54
2017-08-12T12:02:21.154Z,1000.54
2017-08-12T12:03:21.098Z,1000.53
2017-08-12T12:04:21.022Z,1000.57
2017-08-12T12:05:21.089Z,1000.57
2017-08-12T12:06:21.010Z,1000.51
2017-08-12T12:07:21.599Z,1000.52
2017-08-12T12:08:20.990Z,1000.52
2017-08-12T12:09:20.985Z,1000.54
2017-08-12T12:10:20.983Z,1000.53
2017-08-12T12:11:20.982Z,1000.57
2017-08-12T12:12:21.097Z,1000.61
2017-08-12T12:13:22.524Z,1000.58
2017-08-12T12:14:21.908Z,1000.53
2017-08-12T12:15:21.471Z,1000.57
2017-08-12T12:16:20.919Z,1000.50
2017-08-12T12:17:21.645Z,1000.55
2017-08-12T12:18:20.904Z,1000.54
2017-08-12T12:19:20.920Z,1000.49
2017-08-12T12:20:21.352Z,1000.45
2017-08-12T12:21:20.867Z,1000.47
2017-08-12T12:22:22.996Z,1000.49
2017-08-12T12:23:20.854Z,1000.51
2017-08-12T12:24:20.842Z,1000.53
2017-08-12T12:25:20.842Z,1000.56
2017-08-12T12:26:20.832Z,1000.55
2017-08-12T12:27:20.814Z,1000.56
2017-08-12T12:28:20.837Z,1000.54
2017-08-12T12:29:20.823Z,1000.57
2017-08-12T12:30:20.801Z,1000.55
2017-08-12T12:31:20.781Z,1000.58
2017-08-12T12:32:21.984Z,1000.62
2017-08-12T12:33:20.810Z,1000.64
2017-08-12T12:34:20.756Z,1000.59
2017-08-12T12:35:22.925Z,1000.63
2017-08-12T12:36:20.744Z,1000.63
2017-08-12T12:37:20.723Z,1000.61
2017-08-12T12:38:21.037Z,1000.63
2017-08-12T12:39:21.516Z,1000.64
2017-08-12T12:40:20.705Z,1000.69
2017-08-12T12:41:20.695Z,1000.71
2017-08-12T12:42:20.679Z,1000.77
2017-08-12T12:43:20.672Z,1000.71
2017-08-12T12:44:21.113Z,1000.73
2017-08-12T12:45:20.647Z,1000.72
2017-08-12T12:46:20.653Z,1000.74
2017-08-12T12:47:20.640Z,1000.76
2017-08-12T12:48:20.627Z,1000.76
2017-08-12T12:49:20.619Z,1000.74
2017-08-12T12:50:20.645Z,1000.74
2017-08-12T12:51:20.600Z,1000.72
2017-08-12T12:52:20.652Z,1000.72
2017-08-12T12:53:20.602Z,1000.75
2017-08-12T12:54:20.574Z,1000.73
2017-08-12T12:55:21.125Z,1000.76
2017-08-12T12:56:23.591Z,1000.76
2017-08-12T12:57:20.746Z,1000.72
2017-08-12T12:58:20.643Z,1000.72
2017-08-12T12:59:20.645Z,1000.74
2017-08-12T13:00:20.598Z,1000.70
2017-08-12T13:01:21.684Z,1000.74
2017-08-12T13:02:20.506Z,1000.75
2017-08-12T13:03:20.498Z,1000.71
2017-08-12T13:04:23.481Z,1000.73
2017-08-12T13:05:20.539Z,1000.70
2017-08-12T13:06:20.471Z,1000.65
2017-08-12T13:07:20.969Z,1000.70
2017-08-12T13:08:20.443Z,1000.71
2017-08-12T13:09:20.454Z,1000.66
2017-08-12T13:10:20.452Z,1000.70
2017-08-12T13:11:21.021Z,1000.72
2017-08-12T13:12:20.424Z,1000.69
2017-08-12T13:13:20.436Z,1000.72
2017-08-12T13:14:20.403Z,1000.69
2017-08-12T13:15:20.383Z,1000.73
2017-08-12T13:16:20.378Z,1000.69
2017-08-12T13:17:20.366Z,1000.70